sensor_id;sensor_type;location;lat;lon;timestamp;temperature;humidity
54202;DHT22;40108;53.152;5.844;2022-10-16T00:01:17;12.90;93.90
54202;DHT22;40108;53.152;5.844;2022-10-16T00:03:54;12.90;93.80
54202;DHT22;40108;53.152;5.844;2022-10-16T00:06:21;12.80;93.80
54202;DHT22;40108;53.152;5.844;2022-10-16T00:08:48;12.90;93.90
54202;DHT22;40108;53.152;5.844;2022-10-16T00:11:24;12.80;93.90
54202;DHT22;40108;53.152;5.844;2022-10-16T00:13:51;12.90;93.80
54202;DHT22;40108;53.152;5.844;2022-10-16T00:16:18;12.90;93.80
54202;DHT22;40108;53.152;5.844;2022-10-16T00:18:44;12.90;93.80
54202;DHT22;40108;53.152;5.844;2022-10-16T00:21:16;12.90;93.80
54202;DHT22;40108;53.152;5.844;2022-10-16T00:23:42;12.90;93.80
54202;DHT22;40108;53.152;5.844;2022-10-16T00:26:14;13.00;93.80
54202;DHT22;40108;53.152;5.844;2022-10-16T00:28:40;13.00;93.90
54202;DHT22;40108;53.152;5.844;2022-10-16T00:31:07;13.00;93.80
54202;DHT22;40108;53.152;5.844;2022-10-16T00:33:34;13.00;93.70
54202;DHT22;40108;53.152;5.844;2022-10-16T00:36:00;13.00;93.60
54202;DHT22;40108;53.152;5.844;2022-10-16T00:38:26;13.10;93.50
54202;DHT22;40108;53.152;5.844;2022-10-16T00:40:59;13.00;93.50
54202;DHT22;40108;53.152;5.844;2022-10-16T00:46:08;13.10;93.10
54202;DHT22;40108;53.152;5.844;2022-10-16T00:48:35;13.10;92.90
54202;DHT22;40108;53.152;5.844;2022-10-16T00:51:01;13.10;92.80
54202;DHT22;40108;53.152;5.844;2022-10-16T00:53:27;13.10;92.60
54202;DHT22;40108;53.152;5.844;2022-10-16T00:55:53;13.10;92.60
54202;DHT22;40108;53.152;5.844;2022-10-16T00:58:20;13.20;92.50
54202;DHT22;40108;53.152;5.844;2022-10-16T01:00:46;13.20;92.40
54202;DHT22;40108;53.152;5.844;2022-10-16T01:03:28;13.20;92.30
54202;DHT22;40108;53.152;5.844;2022-10-16T01:11:33;13.30;92.10
54202;DHT22;40108;53.152;5.844;2022-10-16T01:14:07;13.30;91.90
54202;DHT22;40108;53.152;5.844;2022-10-16T01:16:44;13.30;91.70
54202;DHT22;40108;53.152;5.844;2022-10-16T01:19:16;13.30;91.70
54202;DHT22;40108;53.152;5.844;2022-10-16T01:21:47;13.40;91.20
54202;DHT22;40108;53.152;5.844;2022-10-16T01:24:27;13.40;91.00
54202;DHT22;40108;53.152;5.844;2022-10-16T01:27:05;13.50;90.60
54202;DHT22;40108;53.152;5.844;2022-10-16T01:29:42;13.50;90.30
54202;DHT22;40108;53.152;5.844;2022-10-16T01:32:33;13.60;89.70
54202;DHT22;40108;53.152;5.844;2022-10-16T01:35:17;13.60;89.50
54202;DHT22;40108;53.152;5.844;2022-10-16T01:38:00;13.60;89.50
54202;DHT22;40108;53.152;5.844;2022-10-16T01:40:29;13.60;89.60
54202;DHT22;40108;53.152;5.844;2022-10-16T01:43:03;13.60;89.30
54202;DHT22;40108;53.152;5.844;2022-10-16T01:45:31;13.60;89.20
54202;DHT22;40108;53.152;5.844;2022-10-16T01:48:00;13.60;89.60
54202;DHT22;40108;53.152;5.844;2022-10-16T01:50:37;13.60;90.30
54202;DHT22;40108;53.152;5.844;2022-10-16T01:53:05;13.40;90.70
54202;DHT22;40108;53.152;5.844;2022-10-16T01:55:38;13.40;91.10
54202;DHT22;40108;53.152;5.844;2022-10-16T01:58:11;13.30;91.50
54202;DHT22;40108;53.152;5.844;2022-10-16T02:00:38;13.20;91.60
54202;DHT22;40108;53.152;5.844;2022-10-16T02:03:05;13.20;91.80
54202;DHT22;40108;53.152;5.844;2022-10-16T02:05:39;13.20;91.80
54202;DHT22;40108;53.152;5.844;2022-10-16T02:08:06;13.20;91.60
54202;DHT22;40108;53.152;5.844;2022-10-16T02:10:34;13.20;91.50
54202;DHT22;40108;53.152;5.844;2022-10-16T02:13:10;13.20;91.30
54202;DHT22;40108;53.152;5.844;2022-10-16T02:15:37;13.20;91.40
54202;DHT22;40108;53.152;5.844;2022-10-16T02:18:07;13.20;91.40
54202;DHT22;40108;53.152;5.844;2022-10-16T02:20:40;13.10;91.30
54202;DHT22;40108;53.152;5.844;2022-10-16T02:23:12;13.20;91.10
54202;DHT22;40108;53.152;5.844;2022-10-16T02:25:44;13.20;90.90
54202;DHT22;40108;53.152;5.844;2022-10-16T02:28:19;13.20;90.60
54202;DHT22;40108;53.152;5.844;2022-10-16T02:31:09;13.20;90.20
54202;DHT22;40108;53.152;5.844;2022-10-16T02:33:38;13.20;90.40
54202;DHT22;40108;53.152;5.844;2022-10-16T02:36:06;13.20;90.40
54202;DHT22;40108;53.152;5.844;2022-10-16T02:38:32;13.10;90.40
54202;DHT22;40108;53.152;5.844;2022-10-16T02:40:58;13.20;90.30
54202;DHT22;40108;53.152;5.844;2022-10-16T02:43:25;13.20;90.30
54202;DHT22;40108;53.152;5.844;2022-10-16T02:45:51;13.20;90.20
54202;DHT22;40108;53.152;5.844;2022-10-16T02:48:16;13.10;90.00
54202;DHT22;40108;53.152;5.844;2022-10-16T02:50:42;13.20;89.80
54202;DHT22;40108;53.152;5.844;2022-10-16T02:53:08;13.20;89.90
54202;DHT22;40108;53.152;5.844;2022-10-16T02:55:33;13.10;90.00
54202;DHT22;40108;53.152;5.844;2022-10-16T02:57:59;13.10;89.80
54202;DHT22;40108;53.152;5.844;2022-10-16T03:00:25;13.10;89.90
54202;DHT22;40108;53.152;5.844;2022-10-16T03:02:51;13.00;90.10
54202;DHT22;40108;53.152;5.844;2022-10-16T03:05:16;13.00;90.20
54202;DHT22;40108;53.152;5.844;2022-10-16T03:07:42;12.90;90.20
54202;DHT22;40108;53.152;5.844;2022-10-16T03:10:08;12.90;90.40
54202;DHT22;40108;53.152;5.844;2022-10-16T03:12:34;12.80;90.60
54202;DHT22;40108;53.152;5.844;2022-10-16T03:15:00;12.70;90.70
54202;DHT22;40108;53.152;5.844;2022-10-16T03:17:26;12.80;91.00
54202;DHT22;40108;53.152;5.844;2022-10-16T03:19:51;12.80;91.00
54202;DHT22;40108;53.152;5.844;2022-10-16T03:22:17;12.70;91.00
54202;DHT22;40108;53.152;5.844;2022-10-16T03:24:43;12.80;91.10
54202;DHT22;40108;53.152;5.844;2022-10-16T03:27:09;12.70;91.20
54202;DHT22;40108;53.152;5.844;2022-10-16T03:29:34;12.70;91.20
54202;DHT22;40108;53.152;5.844;2022-10-16T03:32:00;12.70;91.40
54202;DHT22;40108;53.152;5.844;2022-10-16T03:34:26;12.70;91.40
54202;DHT22;40108;53.152;5.844;2022-10-16T03:36:52;12.70;91.60
54202;DHT22;40108;53.152;5.844;2022-10-16T03:39:19;12.70;91.60
54202;DHT22;40108;53.152;5.844;2022-10-16T03:41:45;12.70;91.60
54202;DHT22;40108;53.152;5.844;2022-10-16T03:44:12;12.70;91.70
54202;DHT22;40108;53.152;5.844;2022-10-16T03:46:38;12.70;91.70
54202;DHT22;40108;53.152;5.844;2022-10-16T03:49:03;12.80;91.70
54202;DHT22;40108;53.152;5.844;2022-10-16T03:51:29;12.80;91.80
54202;DHT22;40108;53.152;5.844;2022-10-16T03:53:55;12.90;91.70
54202;DHT22;40108;53.152;5.844;2022-10-16T03:56:20;12.90;91.90
54202;DHT22;40108;53.152;5.844;2022-10-16T03:58:46;13.00;92.00
54202;DHT22;40108;53.152;5.844;2022-10-16T04:01:12;13.00;92.20
54202;DHT22;40108;53.152;5.844;2022-10-16T04:03:38;13.00;92.40
54202;DHT22;40108;53.152;5.844;2022-10-16T04:06:03;13.00;92.50
54202;DHT22;40108;53.152;5.844;2022-10-16T04:08:29;13.00;92.60
54202;DHT22;40108;53.152;5.844;2022-10-16T04:10:55;12.90;92.70
54202;DHT22;40108;53.152;5.844;2022-10-16T04:13:20;12.90;92.80
54202;DHT22;40108;53.152;5.844;2022-10-16T04:15:46;13.00;93.00
54202;DHT22;40108;53.152;5.844;2022-10-16T04:18:12;13.00;93.00
54202;DHT22;40108;53.152;5.844;2022-10-16T04:20:38;12.90;93.00
54202;DHT22;40108;53.152;5.844;2022-10-16T04:23:03;13.00;93.00
54202;DHT22;40108;53.152;5.844;2022-10-16T04:25:30;13.10;93.10
54202;DHT22;40108;53.152;5.844;2022-10-16T04:27:56;13.10;93.00
54202;DHT22;40108;53.152;5.844;2022-10-16T04:30:22;13.00;93.10
54202;DHT22;40108;53.152;5.844;2022-10-16T04:32:51;13.10;93.00
54202;DHT22;40108;53.152;5.844;2022-10-16T04:35:18;13.00;93.10
54202;DHT22;40108;53.152;5.844;2022-10-16T04:37:45;13.00;93.10
54202;DHT22;40108;53.152;5.844;2022-10-16T04:40:11;12.90;93.00
54202;DHT22;40108;53.152;5.844;2022-10-16T04:42:37;12.90;93.00
54202;DHT22;40108;53.152;5.844;2022-10-16T04:45:04;12.80;93.10
54202;DHT22;40108;53.152;5.844;2022-10-16T04:47:30;12.80;93.30
54202;DHT22;40108;53.152;5.844;2022-10-16T04:49:56;12.70;93.40
54202;DHT22;40108;53.152;5.844;2022-10-16T04:52:22;12.70;93.40
54202;DHT22;40108;53.152;5.844;2022-10-16T04:54:50;12.80;93.50
54202;DHT22;40108;53.152;5.844;2022-10-16T04:57:16;12.70;93.50
54202;DHT22;40108;53.152;5.844;2022-10-16T04:59:42;12.70;93.50
54202;DHT22;40108;53.152;5.844;2022-10-16T05:02:08;12.80;93.60
54202;DHT22;40108;53.152;5.844;2022-10-16T05:04:34;12.80;93.50
54202;DHT22;40108;53.152;5.844;2022-10-16T05:06:59;12.80;93.50
54202;DHT22;40108;53.152;5.844;2022-10-16T05:09:25;12.80;93.50
54202;DHT22;40108;53.152;5.844;2022-10-16T05:11:51;12.80;93.70
54202;DHT22;40108;53.152;5.844;2022-10-16T05:14:17;12.80;93.80
54202;DHT22;40108;53.152;5.844;2022-10-16T05:16:42;12.80;94.00
54202;DHT22;40108;53.152;5.844;2022-10-16T05:19:08;12.80;94.00
54202;DHT22;40108;53.152;5.844;2022-10-16T05:21:34;12.80;94.10
54202;DHT22;40108;53.152;5.844;2022-10-16T05:24:01;12.80;94.10
54202;DHT22;40108;53.152;5.844;2022-10-16T05:26:26;12.90;94.10
54202;DHT22;40108;53.152;5.844;2022-10-16T05:28:52;12.90;94.10
54202;DHT22;40108;53.152;5.844;2022-10-16T05:31:18;12.80;94.10
54202;DHT22;40108;53.152;5.844;2022-10-16T05:33:43;12.90;94.10
54202;DHT22;40108;53.152;5.844;2022-10-16T05:36:09;12.80;94.10
54202;DHT22;40108;53.152;5.844;2022-10-16T05:38:36;12.80;94.10
54202;DHT22;40108;53.152;5.844;2022-10-16T05:41:03;12.80;94.10
54202;DHT22;40108;53.152;5.844;2022-10-16T05:43:30;12.80;94.10
54202;DHT22;40108;53.152;5.844;2022-10-16T05:46:02;12.80;94.10
54202;DHT22;40108;53.152;5.844;2022-10-16T05:48:28;12.70;94.10
54202;DHT22;40108;53.152;5.844;2022-10-16T05:51:03;12.70;94.20
54202;DHT22;40108;53.152;5.844;2022-10-16T05:53:31;12.70;94.20
54202;DHT22;40108;53.152;5.844;2022-10-16T05:55:58;12.70;94.20
54202;DHT22;40108;53.152;5.844;2022-10-16T05:58:24;12.70;94.20
54202;DHT22;40108;53.152;5.844;2022-10-16T06:00:59;12.70;94.20
54202;DHT22;40108;53.152;5.844;2022-10-16T06:03:25;12.70;94.10
54202;DHT22;40108;53.152;5.844;2022-10-16T06:05:51;12.70;94.10
54202;DHT22;40108;53.152;5.844;2022-10-16T06:08:18;12.70;94.00
54202;DHT22;40108;53.152;5.844;2022-10-16T06:10:44;12.80;94.00
54202;DHT22;40108;53.152;5.844;2022-10-16T06:13:12;12.80;94.00
54202;DHT22;40108;53.152;5.844;2022-10-16T06:15:38;12.80;94.00
54202;DHT22;40108;53.152;5.844;2022-10-16T06:18:05;12.80;94.10
54202;DHT22;40108;53.152;5.844;2022-10-16T06:20:31;12.80;94.10
54202;DHT22;40108;53.152;5.844;2022-10-16T06:22:57;12.80;94.10
54202;DHT22;40108;53.152;5.844;2022-10-16T06:25:22;12.80;94.20
54202;DHT22;40108;53.152;5.844;2022-10-16T06:27:48;12.80;94.10
54202;DHT22;40108;53.152;5.844;2022-10-16T06:30:14;12.80;94.10
54202;DHT22;40108;53.152;5.844;2022-10-16T06:32:40;12.90;94.10
54202;DHT22;40108;53.152;5.844;2022-10-16T06:35:05;12.90;94.10
54202;DHT22;40108;53.152;5.844;2022-10-16T06:37:31;13.00;94.10
54202;DHT22;40108;53.152;5.844;2022-10-16T06:39:57;12.90;94.10
54202;DHT22;40108;53.152;5.844;2022-10-16T06:42:23;13.00;94.10
54202;DHT22;40108;53.152;5.844;2022-10-16T06:44:48;13.00;94.00
54202;DHT22;40108;53.152;5.844;2022-10-16T06:47:14;13.00;93.90
54202;DHT22;40108;53.152;5.844;2022-10-16T06:49:39;12.90;93.70
54202;DHT22;40108;53.152;5.844;2022-10-16T06:52:05;12.90;93.50
54202;DHT22;40108;53.152;5.844;2022-10-16T06:54:31;12.90;93.40
54202;DHT22;40108;53.152;5.844;2022-10-16T06:56:56;12.90;93.50
54202;DHT22;40108;53.152;5.844;2022-10-16T06:59:22;12.90;93.70
54202;DHT22;40108;53.152;5.844;2022-10-16T07:01:48;12.80;93.90
54202;DHT22;40108;53.152;5.844;2022-10-16T07:04:14;12.80;94.10
54202;DHT22;40108;53.152;5.844;2022-10-16T07:06:40;12.90;94.20
54202;DHT22;40108;53.152;5.844;2022-10-16T07:09:08;12.90;94.20
54202;DHT22;40108;53.152;5.844;2022-10-16T07:11:36;12.90;94.30
54202;DHT22;40108;53.152;5.844;2022-10-16T07:14:02;12.80;94.40
54202;DHT22;40108;53.152;5.844;2022-10-16T07:16:32;12.90;94.50
54202;DHT22;40108;53.152;5.844;2022-10-16T07:19:00;12.90;94.50
54202;DHT22;40108;53.152;5.844;2022-10-16T07:21:28;12.80;94.50
54202;DHT22;40108;53.152;5.844;2022-10-16T07:23:58;12.80;94.60
54202;DHT22;40108;53.152;5.844;2022-10-16T07:26:26;12.90;94.70
54202;DHT22;40108;53.152;5.844;2022-10-16T07:28:52;12.80;94.80
54202;DHT22;40108;53.152;5.844;2022-10-16T07:31:19;12.80;95.00
54202;DHT22;40108;53.152;5.844;2022-10-16T07:33:45;12.90;95.00
54202;DHT22;40108;53.152;5.844;2022-10-16T07:36:14;12.90;95.00
54202;DHT22;40108;53.152;5.844;2022-10-16T07:38:40;13.00;95.00
54202;DHT22;40108;53.152;5.844;2022-10-16T07:41:10;13.00;95.00
54202;DHT22;40108;53.152;5.844;2022-10-16T07:43:37;13.00;95.00
54202;DHT22;40108;53.152;5.844;2022-10-16T07:46:03;13.00;95.00
54202;DHT22;40108;53.152;5.844;2022-10-16T07:48:31;13.10;95.00
54202;DHT22;40108;53.152;5.844;2022-10-16T07:50:59;13.20;95.00
54202;DHT22;40108;53.152;5.844;2022-10-16T07:53:25;13.20;95.00
54202;DHT22;40108;53.152;5.844;2022-10-16T07:55:51;13.30;95.00
54202;DHT22;40108;53.152;5.844;2022-10-16T07:58:16;13.30;95.00
54202;DHT22;40108;53.152;5.844;2022-10-16T08:00:42;13.30;95.10
54202;DHT22;40108;53.152;5.844;2022-10-16T08:03:08;13.40;95.00
54202;DHT22;40108;53.152;5.844;2022-10-16T08:05:34;13.40;95.00
54202;DHT22;40108;53.152;5.844;2022-10-16T08:08:01;13.40;95.00
54202;DHT22;40108;53.152;5.844;2022-10-16T08:10:28;13.40;94.90
54202;DHT22;40108;53.152;5.844;2022-10-16T08:12:54;13.40;95.00
54202;DHT22;40108;53.152;5.844;2022-10-16T08:15:20;13.40;95.00
54202;DHT22;40108;53.152;5.844;2022-10-16T08:18:01;13.40;95.00
54202;DHT22;40108;53.152;5.844;2022-10-16T08:20:28;13.40;94.90
54202;DHT22;40108;53.152;5.844;2022-10-16T08:22:54;13.30;94.90
54202;DHT22;40108;53.152;5.844;2022-10-16T08:25:21;13.40;94.90
54202;DHT22;40108;53.152;5.844;2022-10-16T08:27:47;13.30;95.00
54202;DHT22;40108;53.152;5.844;2022-10-16T08:30:13;13.30;95.00
54202;DHT22;40108;53.152;5.844;2022-10-16T08:32:40;13.20;94.80
54202;DHT22;40108;53.152;5.844;2022-10-16T08:35:08;13.30;94.80
54202;DHT22;40108;53.152;5.844;2022-10-16T08:37:34;13.30;94.90
54202;DHT22;40108;53.152;5.844;2022-10-16T08:40:00;13.40;95.00
54202;DHT22;40108;53.152;5.844;2022-10-16T08:48:30;13.60;95.30
54202;DHT22;40108;53.152;5.844;2022-10-16T08:51:01;13.80;95.30
54202;DHT22;40108;53.152;5.844;2022-10-16T08:53:31;14.10;95.30
54202;DHT22;40108;53.152;5.844;2022-10-16T08:55:57;14.40;94.70
54202;DHT22;40108;53.152;5.844;2022-10-16T08:58:29;14.60;94.60
54202;DHT22;40108;53.152;5.844;2022-10-16T09:01:00;14.60;93.70
54202;DHT22;40108;53.152;5.844;2022-10-16T09:06:31;15.30;93.70
54202;DHT22;40108;53.152;5.844;2022-10-16T09:09:10;15.60;92.60
54202;DHT22;40108;53.152;5.844;2022-10-16T09:11:47;15.70;91.80
54202;DHT22;40108;53.152;5.844;2022-10-16T09:18:05;16.00;89.60
54202;DHT22;40108;53.152;5.844;2022-10-16T09:23:29;16.20;87.90
54202;DHT22;40108;53.152;5.844;2022-10-16T09:25:57;16.40;88.00
54202;DHT22;40108;53.152;5.844;2022-10-16T09:28:24;16.40;87.90
54202;DHT22;40108;53.152;5.844;2022-10-16T09:30:49;16.60;87.60
54202;DHT22;40108;53.152;5.844;2022-10-16T09:33:17;16.60;85.30
54202;DHT22;40108;53.152;5.844;2022-10-16T09:35:49;16.60;85.70
54202;DHT22;40108;53.152;5.844;2022-10-16T09:38:29;16.60;85.80
54202;DHT22;40108;53.152;5.844;2022-10-16T09:40:56;16.60;85.00
54202;DHT22;40108;53.152;5.844;2022-10-16T09:46:34;16.20;85.80
54202;DHT22;40108;53.152;5.844;2022-10-16T09:49:23;16.40;86.30
54202;DHT22;40108;53.152;5.844;2022-10-16T09:51:49;16.60;86.30
54202;DHT22;40108;53.152;5.844;2022-10-16T09:54:18;16.80;85.30
54202;DHT22;40108;53.152;5.844;2022-10-16T09:56:43;16.90;84.00
54202;DHT22;40108;53.152;5.844;2022-10-16T09:59:16;17.10;85.00
54202;DHT22;40108;53.152;5.844;2022-10-16T10:01:51;17.30;83.30
54202;DHT22;40108;53.152;5.844;2022-10-16T10:04:19;17.20;83.80
54202;DHT22;40108;53.152;5.844;2022-10-16T10:06:50;17.30;84.20
54202;DHT22;40108;53.152;5.844;2022-10-16T10:09:24;17.40;83.30
54202;DHT22;40108;53.152;5.844;2022-10-16T10:14:27;17.20;83.00
54202;DHT22;40108;53.152;5.844;2022-10-16T10:19:42;17.60;80.80
54202;DHT22;40108;53.152;5.844;2022-10-16T10:27:29;17.90;75.70
54202;DHT22;40108;53.152;5.844;2022-10-16T10:33:00;18.20;74.60
54202;DHT22;40108;53.152;5.844;2022-10-16T10:41:21;17.60;73.50
54202;DHT22;40108;53.152;5.844;2022-10-16T10:46:56;17.70;73.90
54202;DHT22;40108;53.152;5.844;2022-10-16T11:05:44;18.80;67.70
54202;DHT22;40108;53.152;5.844;2022-10-16T11:08:18;19.00;69.30
54202;DHT22;40108;53.152;5.844;2022-10-16T11:10:58;19.50;68.30
54202;DHT22;40108;53.152;5.844;2022-10-16T11:13:33;19.60;65.60
54202;DHT22;40108;53.152;5.844;2022-10-16T11:16:08;19.70;67.10
54202;DHT22;40108;53.152;5.844;2022-10-16T11:21:33;20.10;66.30
54202;DHT22;40108;53.152;5.844;2022-10-16T11:24:06;20.10;64.40
54202;DHT22;40108;53.152;5.844;2022-10-16T11:26:41;20.20;64.00
54202;DHT22;40108;53.152;5.844;2022-10-16T11:29:17;20.30;62.50
54202;DHT22;40108;53.152;5.844;2022-10-16T11:31:49;20.10;61.50
54202;DHT22;40108;53.152;5.844;2022-10-16T11:34:36;20.00;62.30
54202;DHT22;40108;53.152;5.844;2022-10-16T11:37:14;20.00;60.70
54202;DHT22;40108;53.152;5.844;2022-10-16T11:39:43;19.50;61.80
54202;DHT22;40108;53.152;5.844;2022-10-16T11:42:29;19.50;63.70
54202;DHT22;40108;53.152;5.844;2022-10-16T11:50:22;20.00;62.00
54202;DHT22;40108;53.152;5.844;2022-10-16T11:55:38;19.70;63.40
54202;DHT22;40108;53.152;5.844;2022-10-16T11:58:29;19.60;62.90
54202;DHT22;40108;53.152;5.844;2022-10-16T12:01:00;19.50;62.80
54202;DHT22;40108;53.152;5.844;2022-10-16T12:03:42;19.60;63.20
54202;DHT22;40108;53.152;5.844;2022-10-16T12:06:44;19.70;64.40
54202;DHT22;40108;53.152;5.844;2022-10-16T12:09:20;20.10;63.60
54202;DHT22;40108;53.152;5.844;2022-10-16T12:11:47;20.10;62.20
54202;DHT22;40108;53.152;5.844;2022-10-16T12:19:17;20.00;61.70
54202;DHT22;40108;53.152;5.844;2022-10-16T12:21:43;20.10;61.40
54202;DHT22;40108;53.152;5.844;2022-10-16T12:26:57;19.80;60.10
54202;DHT22;40108;53.152;5.844;2022-10-16T12:29:41;19.70;61.30
54202;DHT22;40108;53.152;5.844;2022-10-16T12:32:36;19.70;61.70
54202;DHT22;40108;53.152;5.844;2022-10-16T12:35:04;19.70;61.00
54202;DHT22;40108;53.152;5.844;2022-10-16T12:37:34;19.90;62.30
54202;DHT22;40108;53.152;5.844;2022-10-16T12:40:34;19.70;61.70
54202;DHT22;40108;53.152;5.844;2022-10-16T12:42:59;19.40;62.10
54202;DHT22;40108;53.152;5.844;2022-10-16T12:45:36;19.00;62.40
54202;DHT22;40108;53.152;5.844;2022-10-16T12:48:04;18.50;63.70
54202;DHT22;40108;53.152;5.844;2022-10-16T12:50:34;18.20;63.80
54202;DHT22;40108;53.152;5.844;2022-10-16T12:53:02;18.00;65.40
54202;DHT22;40108;53.152;5.844;2022-10-16T12:55:35;17.70;66.30
54202;DHT22;40108;53.152;5.844;2022-10-16T12:58:29;17.60;67.50
54202;DHT22;40108;53.152;5.844;2022-10-16T13:01:16;17.30;68.50
54202;DHT22;40108;53.152;5.844;2022-10-16T13:07:00;17.10;69.40
54202;DHT22;40108;53.152;5.844;2022-10-16T13:09:30;17.10;70.40
54202;DHT22;40108;53.152;5.844;2022-10-16T13:12:29;17.10;70.60
54202;DHT22;40108;53.152;5.844;2022-10-16T13:18:13;16.90;69.90
54202;DHT22;40108;53.152;5.844;2022-10-16T13:23:39;16.90;70.80
54202;DHT22;40108;53.152;5.844;2022-10-16T13:26:16;16.80;70.50
54202;DHT22;40108;53.152;5.844;2022-10-16T13:28:45;16.80;71.50
54202;DHT22;40108;53.152;5.844;2022-10-16T13:31:22;16.80;71.50
54202;DHT22;40108;53.152;5.844;2022-10-16T13:33:51;16.70;71.20
54202;DHT22;40108;53.152;5.844;2022-10-16T13:36:22;16.70;71.80
54202;DHT22;40108;53.152;5.844;2022-10-16T13:38:48;16.70;71.80
54202;DHT22;40108;53.152;5.844;2022-10-16T13:41:25;16.70;72.00
54202;DHT22;40108;53.152;5.844;2022-10-16T13:43:52;16.80;72.00
54202;DHT22;40108;53.152;5.844;2022-10-16T13:46:21;16.80;72.60
54202;DHT22;40108;53.152;5.844;2022-10-16T13:49:01;16.80;72.30
54202;DHT22;40108;53.152;5.844;2022-10-16T13:51:28;16.70;71.10
54202;DHT22;40108;53.152;5.844;2022-10-16T13:53:55;16.70;72.30
54202;DHT22;40108;53.152;5.844;2022-10-16T13:56:25;16.70;71.80
54202;DHT22;40108;53.152;5.844;2022-10-16T13:59:06;16.70;71.60
54202;DHT22;40108;53.152;5.844;2022-10-16T14:01:43;16.60;72.00
54202;DHT22;40108;53.152;5.844;2022-10-16T14:04:10;16.60;72.20
54202;DHT22;40108;53.152;5.844;2022-10-16T14:06:41;16.50;72.40
54202;DHT22;40108;53.152;5.844;2022-10-16T14:11:44;16.50;71.70
54202;DHT22;40108;53.152;5.844;2022-10-16T14:14:12;16.40;72.00
54202;DHT22;40108;53.152;5.844;2022-10-16T14:16:40;16.40;72.40
54202;DHT22;40108;53.152;5.844;2022-10-16T14:21:41;16.40;72.70
54202;DHT22;40108;53.152;5.844;2022-10-16T14:24:19;16.30;72.50
54202;DHT22;40108;53.152;5.844;2022-10-16T14:26:47;16.30;72.70
54202;DHT22;40108;53.152;5.844;2022-10-16T14:29:25;16.20;72.20
54202;DHT22;40108;53.152;5.844;2022-10-16T14:32:02;16.20;72.40
54202;DHT22;40108;53.152;5.844;2022-10-16T14:34:37;16.10;72.60
54202;DHT22;40108;53.152;5.844;2022-10-16T14:39:49;16.10;73.60
54202;DHT22;40108;53.152;5.844;2022-10-16T14:42:17;16.00;74.00
54202;DHT22;40108;53.152;5.844;2022-10-16T14:44:45;16.00;74.40
54202;DHT22;40108;53.152;5.844;2022-10-16T14:47:16;15.90;74.90
54202;DHT22;40108;53.152;5.844;2022-10-16T14:49:47;15.80;75.10
54202;DHT22;40108;53.152;5.844;2022-10-16T14:52:13;15.70;75.30
54202;DHT22;40108;53.152;5.844;2022-10-16T14:54:40;15.60;75.70
54202;DHT22;40108;53.152;5.844;2022-10-16T14:57:19;15.60;75.90
54202;DHT22;40108;53.152;5.844;2022-10-16T14:59:47;15.60;76.20
54202;DHT22;40108;53.152;5.844;2022-10-16T15:02:30;15.50;76.50
54202;DHT22;40108;53.152;5.844;2022-10-16T15:04:56;15.50;76.60
54202;DHT22;40108;53.152;5.844;2022-10-16T15:07:23;15.50;77.20
54202;DHT22;40108;53.152;5.844;2022-10-16T15:09:50;15.40;77.40
54202;DHT22;40108;53.152;5.844;2022-10-16T15:12:17;15.40;77.80
54202;DHT22;40108;53.152;5.844;2022-10-16T15:14:43;15.40;77.60
54202;DHT22;40108;53.152;5.844;2022-10-16T15:17:10;15.40;78.00
54202;DHT22;40108;53.152;5.844;2022-10-16T15:19:36;15.40;78.10
54202;DHT22;40108;53.152;5.844;2022-10-16T15:22:01;15.30;78.30
54202;DHT22;40108;53.152;5.844;2022-10-16T15:24:27;15.30;78.30
54202;DHT22;40108;53.152;5.844;2022-10-16T15:26:53;15.20;78.60
54202;DHT22;40108;53.152;5.844;2022-10-16T15:29:19;15.20;78.80
54202;DHT22;40108;53.152;5.844;2022-10-16T15:31:44;15.10;78.90
54202;DHT22;40108;53.152;5.844;2022-10-16T15:34:13;15.10;78.90
54202;DHT22;40108;53.152;5.844;2022-10-16T15:36:40;15.10;79.10
54202;DHT22;40108;53.152;5.844;2022-10-16T15:39:14;15.10;79.30
54202;DHT22;40108;53.152;5.844;2022-10-16T15:41:41;15.00;79.50
54202;DHT22;40108;53.152;5.844;2022-10-16T15:44:07;15.00;79.50
54202;DHT22;40108;53.152;5.844;2022-10-16T15:46:33;14.90;79.60
54202;DHT22;40108;53.152;5.844;2022-10-16T15:49:00;14.90;79.90
54202;DHT22;40108;53.152;5.844;2022-10-16T15:51:27;14.80;80.30
54202;DHT22;40108;53.152;5.844;2022-10-16T15:53:56;14.70;80.70
54202;DHT22;40108;53.152;5.844;2022-10-16T15:56:22;14.60;81.00
54202;DHT22;40108;53.152;5.844;2022-10-16T15:58:48;14.60;81.50
54202;DHT22;40108;53.152;5.844;2022-10-16T16:01:14;14.50;81.60
54202;DHT22;40108;53.152;5.844;2022-10-16T16:03:39;14.40;81.70
54202;DHT22;40108;53.152;5.844;2022-10-16T16:06:11;14.30;82.30
54202;DHT22;40108;53.152;5.844;2022-10-16T16:08:37;14.20;82.40
54202;DHT22;40108;53.152;5.844;2022-10-16T16:11:09;14.20;82.70
54202;DHT22;40108;53.152;5.844;2022-10-16T16:13:35;14.10;82.70
54202;DHT22;40108;53.152;5.844;2022-10-16T16:16:06;14.10;83.00
54202;DHT22;40108;53.152;5.844;2022-10-16T16:18:32;14.10;83.20
54202;DHT22;40108;53.152;5.844;2022-10-16T16:20:58;14.00;83.60
54202;DHT22;40108;53.152;5.844;2022-10-16T16:23:24;13.90;84.10
54202;DHT22;40108;53.152;5.844;2022-10-16T16:26:23;13.90;84.10
54202;DHT22;40108;53.152;5.844;2022-10-16T16:28:53;13.90;84.20
54202;DHT22;40108;53.152;5.844;2022-10-16T16:31:20;13.80;84.20
54202;DHT22;40108;53.152;5.844;2022-10-16T16:33:46;13.80;84.40
54202;DHT22;40108;53.152;5.844;2022-10-16T16:36:12;13.70;84.30
54202;DHT22;40108;53.152;5.844;2022-10-16T16:38:38;13.70;84.40
54202;DHT22;40108;53.152;5.844;2022-10-16T16:41:15;13.70;84.50
54202;DHT22;40108;53.152;5.844;2022-10-16T16:43:42;13.60;84.70
54202;DHT22;40108;53.152;5.844;2022-10-16T16:46:07;13.60;84.60
54202;DHT22;40108;53.152;5.844;2022-10-16T16:48:34;13.60;84.70
54202;DHT22;40108;53.152;5.844;2022-10-16T16:51:07;13.60;84.90
54202;DHT22;40108;53.152;5.844;2022-10-16T16:53:35;13.50;85.00
54202;DHT22;40108;53.152;5.844;2022-10-16T16:56:03;13.40;85.00
54202;DHT22;40108;53.152;5.844;2022-10-16T16:58:29;13.40;85.70
54202;DHT22;40108;53.152;5.844;2022-10-16T17:00:55;13.30;85.70
54202;DHT22;40108;53.152;5.844;2022-10-16T17:03:20;13.20;85.70
54202;DHT22;40108;53.152;5.844;2022-10-16T17:06:19;13.20;86.10
54202;DHT22;40108;53.152;5.844;2022-10-16T17:08:45;13.20;86.10
54202;DHT22;40108;53.152;5.844;2022-10-16T17:11:13;13.10;86.40
54202;DHT22;40108;53.152;5.844;2022-10-16T17:13:39;13.10;86.60
54202;DHT22;40108;53.152;5.844;2022-10-16T17:16:06;13.10;86.50
54202;DHT22;40108;53.152;5.844;2022-10-16T17:18:32;13.10;86.40
54202;DHT22;40108;53.152;5.844;2022-10-16T17:21:06;13.00;86.80
54202;DHT22;40108;53.152;5.844;2022-10-16T17:23:33;13.00;87.00
54202;DHT22;40108;53.152;5.844;2022-10-16T17:26:17;13.00;86.90